createdAt,value
2022-10-21T00:05:25.641Z,99.90
2022-10-21T00:08:12.103Z,99.90
2022-10-21T00:10:54.441Z,99.90
2022-10-21T00:13:27.947Z,99.90
2022-10-21T00:16:03.886Z,99.90
2022-10-21T00:18:32.464Z,99.90
2022-10-21T00:21:01.013Z,99.90
2022-10-21T00:23:30.583Z,99.90
2022-10-21T00:26:05.278Z,99.90
2022-10-21T00:28:35.077Z,99.90
2022-10-21T00:31:07.003Z,99.90
2022-10-21T00:33:43.274Z,99.90
2022-10-21T00:36:18.310Z,99.90
2022-10-21T00:38:48.441Z,99.90
2022-10-21T00:41:24.197Z,99.90
2022-10-21T00:44:00.032Z,99.90
2022-10-21T00:46:45.332Z,99.90
2022-10-21T00:49:23.104Z,99.90
2022-10-21T00:52:08.926Z,99.90
2022-10-21T00:54:39.903Z,99.90
2022-10-21T00:57:24.322Z,99.90
2022-10-21T01:00:11.835Z,99.90
2022-10-21T01:02:49.327Z,99.90
2022-10-21T01:05:21.588Z,99.90
2022-10-21T01:07:54.780Z,99.90
2022-10-21T01:10:30.764Z,99.90
2022-10-21T01:13:15.804Z,99.90
2022-10-21T01:15:54.134Z,99.90
2022-10-21T01:18:31.329Z,99.90
2022-10-21T01:21:05.837Z,99.90
2022-10-21T01:23:54.062Z,99.90
2022-10-21T01:26:34.507Z,99.90
2022-10-21T01:29:23.944Z,99.90
2022-10-21T01:32:09.869Z,99.90
2022-10-21T01:34:41.102Z,99.90
2022-10-21T01:37:16.551Z,99.90
2022-10-21T01:39:47.656Z,99.90
2022-10-21T01:42:38.959Z,99.90
2022-10-21T01:45:23.318Z,99.90
2022-10-21T01:48:00.189Z,99.90
2022-10-21T01:50:53.729Z,99.90
2022-10-21T01:53:39.136Z,99.90
2022-10-21T01:56:21.346Z,99.90
2022-10-21T01:58:55.916Z,99.90
2022-10-21T02:01:28.839Z,99.90
2022-10-21T02:04:00.654Z,99.90
2022-10-21T02:06:31.830Z,99.90
2022-10-21T02:09:05.723Z,99.90
2022-10-21T02:11:40.527Z,99.90
2022-10-21T02:14:19.675Z,99.90
2022-10-21T02:19:34.510Z,99.90
2022-10-21T02:22:18.830Z,99.90
2022-10-21T02:24:58.785Z,99.90
2022-10-21T02:27:38.605Z,99.90
2022-10-21T02:30:13.033Z,99.90
2022-10-21T02:32:56.161Z,99.90
2022-10-21T02:35:53.828Z,99.90
2022-10-21T02:39:11.748Z,99.90
2022-10-21T02:41:24.675Z,99.90
2022-10-21T02:43:54.574Z,99.90
2022-10-21T02:46:27.044Z,99.90
2022-10-21T02:48:59.068Z,99.90
2022-10-21T02:51:38.184Z,99.90
2022-10-21T02:54:09.024Z,99.90
2022-10-21T02:56:46.371Z,99.90
2022-10-21T02:59:14.811Z,99.90
2022-10-21T03:01:45.796Z,99.90
2022-10-21T03:04:33.103Z,99.90
2022-10-21T03:07:24.725Z,66.90
2022-10-21T03:09:58.127Z,28.50
2022-10-21T03:12:28.460Z,99.90
2022-10-21T03:15:08.633Z,99.90
2022-10-21T03:17:38.236Z,99.90
2022-10-21T03:20:13.172Z,99.90
2022-10-21T03:22:47.449Z,94.70
2022-10-21T03:25:34.375Z,50.10
2022-10-21T03:28:04.087Z,99.90
2022-10-21T03:30:46.071Z,99.90
2022-10-21T03:33:17.160Z,99.90
2022-10-21T03:35:49.817Z,99.90
2022-10-21T03:38:19.940Z,99.90
2022-10-21T03:40:48.339Z,99.90
2022-10-21T03:43:16.699Z,92.00
2022-10-21T03:45:59.172Z,99.90
2022-10-21T03:48:31.101Z,99.90
2022-10-21T03:51:05.348Z,99.90
2022-10-21T03:53:44.008Z,97.30
2022-10-21T03:56:12.702Z,52.20
2022-10-21T03:58:42.922Z,2.20
2022-10-21T04:01:21.183Z,1.00
2022-10-21T04:03:56.852Z,11.60
2022-10-21T04:06:29.256Z,37.50
2022-10-21T04:09:00.324Z,27.90
2022-10-21T04:11:40.826Z,99.90
2022-10-21T04:14:20.781Z,99.90
2022-10-21T04:17:07.499Z,99.90
2022-10-21T04:19:39.117Z,94.00
2022-10-21T04:22:07.371Z,99.90
2022-10-21T04:24:42.033Z,99.90
2022-10-21T04:27:18.927Z,99.90
2022-10-21T04:29:47.233Z,99.90
2022-10-21T04:32:16.588Z,99.90
2022-10-21T04:34:46.747Z,99.90
2022-10-21T04:37:16.302Z,99.90
2022-10-21T04:39:48.988Z,99.90
2022-10-21T04:42:17.424Z,99.90
2022-10-21T04:44:45.646Z,99.90
2022-10-21T04:47:13.815Z,99.90
2022-10-21T04:49:42.323Z,99.90
2022-10-21T04:52:10.559Z,99.90
2022-10-21T04:54:38.964Z,99.90
2022-10-21T04:57:08.929Z,99.90
2022-10-21T04:59:37.255Z,99.90
2022-10-21T05:02:05.638Z,99.90
2022-10-21T05:04:34.021Z,99.90
2022-10-21T05:07:02.339Z,99.90
2022-10-21T05:09:30.548Z,99.90
2022-10-21T05:11:58.809Z,99.90
2022-10-21T05:14:31.353Z,99.90
2022-10-21T05:17:01.812Z,99.90
2022-10-21T05:19:40.459Z,99.90
2022-10-21T05:22:08.741Z,99.90
2022-10-21T05:24:36.986Z,99.90
2022-10-21T05:27:05.333Z,99.90
2022-10-21T05:29:34.935Z,99.90
2022-10-21T05:32:04.537Z,99.90
2022-10-21T05:34:32.845Z,99.90
2022-10-21T05:37:01.132Z,99.90
2022-10-21T05:39:36.492Z,99.90
2022-10-21T05:42:06.291Z,99.90
2022-10-21T05:44:36.236Z,99.90
2022-10-21T05:47:04.824Z,99.90
2022-10-21T05:49:33.288Z,99.90
2022-10-21T05:52:02.458Z,99.90
2022-10-21T05:54:30.965Z,99.90
2022-10-21T05:57:05.274Z,99.90
2022-10-21T05:59:33.642Z,99.90
2022-10-21T06:02:03.481Z,99.90
2022-10-21T06:04:36.319Z,99.90
2022-10-21T06:07:07.081Z,99.90
2022-10-21T06:09:35.556Z,99.90
2022-10-21T06:12:03.948Z,99.90
2022-10-21T06:14:33.015Z,99.90
2022-10-21T06:17:01.489Z,99.90
2022-10-21T06:19:32.021Z,99.90
2022-10-21T06:22:00.857Z,99.90
2022-10-21T06:24:30.193Z,99.90
2022-10-21T06:26:58.538Z,99.90
2022-10-21T06:29:27.882Z,99.90
2022-10-21T06:31:56.161Z,99.90
2022-10-21T06:34:25.216Z,99.90
2022-10-21T06:36:55.130Z,99.90
2022-10-21T06:39:23.367Z,99.90
2022-10-21T06:41:51.869Z,99.90
2022-10-21T06:44:20.421Z,99.90
2022-10-21T06:46:48.795Z,99.90
2022-10-21T06:49:17.255Z,99.90
2022-10-21T06:51:46.660Z,99.90
2022-10-21T06:54:16.550Z,99.90
2022-10-21T06:56:47.157Z,99.90
2022-10-21T06:59:15.374Z,99.90
2022-10-21T07:02:00.534Z,99.90
2022-10-21T07:04:31.314Z,99.90
2022-10-21T07:06:59.820Z,99.90
2022-10-21T07:09:30.991Z,99.90
2022-10-21T07:11:59.280Z,99.90
2022-10-21T07:14:27.477Z,99.90
2022-10-21T07:16:56.005Z,99.90
2022-10-21T07:19:27.132Z,99.90
2022-10-21T07:21:55.487Z,99.90
2022-10-21T07:24:23.963Z,99.90
2022-10-21T07:26:54.362Z,99.90
2022-10-21T07:29:22.667Z,99.90
2022-10-21T07:31:50.965Z,99.90
2022-10-21T07:34:21.409Z,99.90
2022-10-21T07:36:53.124Z,99.90
2022-10-21T07:39:22.731Z,99.90
2022-10-21T07:41:54.891Z,99.90
2022-10-21T07:44:26.282Z,99.90
2022-10-21T07:46:55.359Z,99.90
2022-10-21T07:49:25.031Z,99.90
2022-10-21T07:51:54.788Z,99.90
2022-10-21T07:54:24.369Z,99.90
2022-10-21T07:56:53.470Z,99.90
2022-10-21T07:59:22.649Z,99.90
2022-10-21T08:01:54.173Z,99.90
2022-10-21T08:04:23.697Z,99.90
2022-10-21T08:06:52.306Z,99.90
2022-10-21T08:09:20.694Z,99.90
2022-10-21T08:11:49.278Z,99.90
2022-10-21T08:14:24.823Z,99.90
2022-10-21T08:16:55.940Z,99.90
2022-10-21T08:19:29.747Z,99.90
2022-10-21T08:22:00.516Z,99.90
2022-10-21T08:24:29.692Z,99.90
2022-10-21T08:27:00.613Z,99.90
2022-10-21T08:29:28.969Z,99.90
2022-10-21T08:31:59.150Z,99.90
2022-10-21T08:34:27.783Z,99.90
2022-10-21T08:36:56.053Z,99.90
2022-10-21T08:39:25.223Z,99.90
2022-10-21T08:42:03.552Z,99.90
2022-10-21T08:44:35.212Z,99.90
2022-10-21T08:49:42.716Z,99.90
2022-10-21T08:52:17.551Z,99.90
2022-10-21T08:54:48.034Z,99.90
2022-10-21T08:57:16.884Z,99.90
2022-10-21T08:59:45.866Z,99.90
2022-10-21T09:02:31.368Z,99.90
2022-10-21T09:05:09.901Z,99.90
2022-10-21T09:07:46.737Z,99.90
2022-10-21T09:10:18.539Z,99.90
2022-10-21T09:12:58.533Z,99.90
2022-10-21T09:15:28.549Z,99.90
2022-10-21T09:18:13.269Z,99.90
2022-10-21T09:20:54.923Z,99.90
2022-10-21T09:23:35.235Z,99.90
2022-10-21T09:26:04.434Z,99.90
2022-10-21T09:28:33.033Z,99.90
2022-10-21T09:31:03.890Z,99.90
2022-10-21T09:33:35.020Z,99.90
2022-10-21T09:36:04.837Z,99.90
2022-10-21T09:38:43.719Z,99.90
2022-10-21T09:41:15.893Z,86.40
2022-10-21T09:43:44.749Z,1.00
2022-10-21T09:46:14.012Z,1.00
2022-10-21T09:49:16.362Z,99.90
2022-10-21T09:51:35.440Z,1.00
2022-10-21T09:54:08.068Z,99.90
2022-10-21T09:56:40.106Z,99.90
2022-10-21T09:59:10.355Z,99.90
2022-10-21T10:01:39.484Z,99.90
2022-10-21T10:04:23.560Z,99.90
2022-10-21T10:06:52.085Z,1.00
2022-10-21T10:09:27.103Z,99.90
2022-10-21T10:11:57.112Z,99.90
2022-10-21T10:14:27.610Z,99.90
2022-10-21T10:16:56.111Z,99.90
2022-10-21T10:19:27.543Z,99.90
2022-10-21T10:22:11.542Z,1.00
2022-10-21T10:24:42.127Z,99.90
2022-10-21T10:27:14.819Z,1.00
2022-10-21T10:29:44.152Z,99.90
2022-10-21T10:32:16.719Z,9.30
2022-10-21T10:34:53.747Z,1.00
2022-10-21T10:37:23.495Z,99.90
2022-10-21T10:39:53.819Z,99.90
2022-10-21T10:42:25.251Z,99.90
2022-10-21T10:44:55.186Z,1.00
2022-10-21T10:47:26.438Z,1.30
2022-10-21T11:44:57.689Z,99.90
2022-10-21T11:47:30.586Z,99.90
2022-10-21T11:50:01.920Z,99.90
2022-10-21T11:52:35.623Z,99.90
2022-10-21T11:55:21.772Z,99.90
2022-10-21T11:57:55.317Z,1.00
2022-10-21T12:00:26.684Z,1.00
2022-10-21T12:03:06.824Z,1.00
2022-10-21T12:05:40.833Z,1.00
2022-10-21T12:08:12.429Z,99.90
2022-10-21T12:10:45.619Z,1.00
2022-10-21T12:13:16.953Z,99.90
2022-10-21T12:15:51.141Z,4.00
2022-10-21T12:18:23.921Z,7.00
2022-10-21T12:20:55.701Z,2.00
2022-10-21T12:23:25.915Z,1.00
2022-10-21T12:26:09.057Z,99.90
2022-10-21T12:28:39.232Z,99.90
2022-10-21T12:31:21.196Z,99.90
2022-10-21T12:33:51.989Z,99.90
2022-10-21T12:36:21.932Z,44.80
2022-10-21T12:38:50.973Z,99.90
2022-10-21T12:41:34.955Z,11.50
2022-10-21T12:44:08.111Z,1.00
2022-10-21T12:46:40.308Z,13.00
2022-10-21T12:49:20.331Z,1.00
2022-10-21T12:51:51.826Z,1.00
2022-10-21T12:54:29.664Z,1.00
2022-10-21T12:57:04.107Z,1.00
2022-10-21T12:59:34.233Z,1.00
2022-10-21T13:02:21.056Z,1.00
2022-10-21T13:04:53.727Z,1.00
2022-10-21T13:07:33.852Z,1.00
2022-10-21T13:10:40.945Z,1.00
2022-10-21T13:13:34.001Z,1.00
2022-10-21T13:16:06.337Z,1.00
2022-10-21T13:18:54.637Z,1.00
2022-10-21T13:21:32.882Z,1.00
2022-10-21T13:24:07.160Z,99.90
2022-10-21T13:26:40.588Z,99.90
2022-10-21T13:29:20.332Z,99.90
2022-10-21T13:31:49.011Z,99.90
2022-10-21T13:34:27.191Z,99.90
2022-10-21T13:37:02.073Z,99.90
2022-10-21T13:39:32.217Z,99.90
2022-10-21T13:42:04.903Z,99.90
2022-10-21T13:44:40.192Z,99.90
2022-10-21T13:47:31.281Z,99.90
2022-10-21T13:50:04.253Z,99.90
2022-10-21T13:52:34.469Z,99.90
2022-10-21T13:55:04.883Z,99.90
2022-10-21T13:57:34.506Z,99.90
2022-10-21T14:00:08.025Z,99.90
2022-10-21T14:05:42.912Z,99.90
2022-10-21T14:08:32.227Z,99.90
2022-10-21T14:11:28.582Z,99.90
2022-10-21T14:14:12.492Z,99.90
2022-10-21T14:19:41.905Z,99.90
2022-10-21T14:25:07.713Z,99.90
2022-10-21T14:27:47.497Z,99.90
2022-10-21T14:30:21.518Z,99.90
2022-10-21T14:32:50.348Z,99.90
2022-10-21T14:35:48.772Z,99.90
2022-10-21T14:38:30.073Z,99.90
2022-10-21T14:41:26.628Z,99.90
2022-10-21T14:44:07.408Z,99.90
2022-10-21T14:46:52.033Z,99.90
2022-10-21T14:49:30.074Z,99.90
2022-10-21T14:52:27.790Z,99.90
2022-10-21T14:55:10.785Z,99.90
2022-10-21T14:57:56.742Z,99.90
2022-10-21T15:00:38.881Z,99.90
2022-10-21T15:03:10.812Z,99.90
2022-10-21T15:05:56.453Z,99.90
2022-10-21T15:08:31.437Z,99.90
2022-10-21T15:11:27.813Z,99.90
2022-10-21T15:14:18.718Z,99.90
2022-10-21T15:16:52.129Z,1.00
2022-10-21T15:19:23.940Z,1.00
2022-10-21T15:21:57.036Z,1.00
2022-10-21T15:24:26.988Z,1.00
2022-10-21T15:27:03.087Z,1.00
2022-10-21T15:29:42.087Z,1.00
2022-10-21T15:32:34.769Z,1.00
2022-10-21T15:35:03.929Z,1.00
2022-10-21T15:37:41.459Z,1.00
2022-10-21T15:40:11.137Z,1.00
2022-10-21T15:42:41.165Z,1.00
2022-10-21T15:45:22.403Z,1.00
2022-10-21T15:47:53.135Z,1.00
2022-10-21T15:50:27.950Z,1.00
2022-10-21T15:53:14.547Z,1.00
2022-10-21T15:56:04.499Z,1.00
2022-10-21T15:58:36.072Z,1.00
2022-10-21T16:01:29.890Z,1.00
2022-10-21T16:04:10.331Z,1.00
2022-10-21T16:07:03.615Z,1.00
2022-10-21T16:09:46.429Z,49.50
2022-10-21T16:12:42.668Z,99.90
2022-10-21T16:15:21.989Z,99.90
2022-10-21T16:18:03.671Z,99.90
2022-10-21T16:20:38.245Z,99.90
2022-10-21T16:23:06.936Z,99.90
2022-10-21T16:25:57.334Z,1.00
2022-10-21T16:28:27.873Z,1.00
2022-10-21T16:31:01.503Z,1.00
2022-10-21T16:33:30.387Z,82.00
2022-10-21T16:36:00.904Z,99.90
2022-10-21T16:38:33.271Z,1.00
2022-10-21T16:41:07.513Z,1.00
2022-10-21T16:43:36.222Z,99.90
2022-10-21T16:46:07.081Z,1.00
2022-10-21T16:48:38.180Z,99.90
2022-10-21T16:51:18.952Z,99.90
2022-10-21T16:53:47.352Z,99.90
2022-10-21T16:56:16.087Z,1.00
2022-10-21T16:58:44.497Z,41.00
2022-10-21T17:01:31.389Z,1.00
2022-10-21T17:04:00.024Z,1.00
2022-10-21T17:06:30.556Z,1.00
2022-10-21T17:09:02.110Z,99.90
2022-10-21T17:11:33.376Z,1.00
2022-10-21T17:14:02.124Z,1.00
2022-10-21T17:16:30.745Z,99.90
2022-10-21T17:19:03.880Z,99.90
2022-10-21T17:21:49.043Z,99.90
2022-10-21T17:24:21.748Z,99.90
2022-10-21T17:26:52.079Z,1.00
2022-10-21T17:29:38.979Z,1.00
2022-10-21T17:32:11.963Z,1.00
2022-10-21T17:34:47.167Z,1.00
2022-10-21T17:37:17.052Z,99.90
2022-10-21T17:39:45.681Z,79.10
2022-10-21T17:42:17.239Z,1.00
2022-10-21T17:44:48.280Z,22.00
2022-10-21T17:47:19.663Z,99.90
2022-10-21T17:49:48.328Z,99.90
2022-10-21T17:52:28.694Z,1.00
2022-10-21T18:05:29.396Z,99.90
2022-10-21T18:08:42.544Z,1.00
2022-10-21T18:18:02.416Z,99.90
2022-10-21T18:30:57.097Z,99.90
2022-10-21T18:36:47.915Z,1.00
2022-10-21T18:53:17.489Z,1.00
2022-10-21T19:06:16.022Z,1.00
2022-10-21T19:09:22.190Z,1.00
2022-10-21T19:12:22.423Z,1.00
2022-10-21T19:18:47.028Z,1.00
2022-10-21T19:24:46.831Z,1.00
2022-10-21T19:27:42.497Z,1.00
2022-10-21T19:30:45.830Z,14.80
2022-10-21T19:34:03.741Z,94.70
2022-10-21T19:36:43.090Z,56.50
2022-10-21T19:39:29.628Z,91.10
2022-10-21T19:42:28.480Z,60.40
2022-10-21T19:46:13.589Z,63.80
2022-10-21T19:51:15.187Z,99.90
2022-10-21T19:53:45.305Z,99.90
2022-10-21T19:56:15.143Z,99.90
2022-10-21T20:01:22.299Z,99.90
2022-10-21T20:04:01.632Z,99.90
2022-10-21T20:06:36.416Z,99.90
2022-10-21T20:09:08.270Z,99.90
2022-10-21T20:11:41.291Z,99.90
2022-10-21T20:14:15.503Z,99.90
2022-10-21T20:16:51.982Z,99.90
2022-10-21T20:19:23.927Z,99.90
2022-10-21T20:21:54.407Z,99.90
2022-10-21T20:24:29.197Z,99.90
2022-10-21T20:27:03.080Z,99.90
2022-10-21T20:29:31.429Z,99.90
2022-10-21T20:32:04.353Z,99.90
2022-10-21T20:34:37.507Z,99.90
2022-10-21T20:37:08.179Z,99.90
2022-10-21T20:39:36.913Z,99.90
2022-10-21T20:42:06.884Z,99.90
2022-10-21T20:44:43.189Z,99.90
2022-10-21T20:47:14.394Z,99.90
2022-10-21T20:49:44.399Z,99.90
2022-10-21T20:55:05.984Z,99.90
2022-10-21T20:57:34.370Z,99.90
2022-10-21T21:00:02.805Z,99.90
2022-10-21T21:05:17.948Z,99.90
2022-10-21T21:07:49.241Z,99.90
2022-10-21T21:10:19.255Z,99.90
2022-10-21T21:12:50.445Z,99.90
2022-10-21T21:15:19.738Z,99.90
2022-10-21T21:18:05.362Z,99.90
2022-10-21T21:20:36.560Z,99.90
2022-10-21T21:23:18.031Z,99.90
2022-10-21T21:25:50.523Z,99.90
2022-10-21T21:28:24.784Z,99.90
2022-10-21T21:30:55.577Z,99.90
2022-10-21T21:33:23.963Z,99.90
2022-10-21T21:35:56.970Z,99.90
2022-10-21T21:38:25.427Z,99.90
2022-10-21T21:40:56.660Z,99.90
2022-10-21T21:43:29.548Z,99.90
2022-10-21T21:46:00.106Z,99.90
2022-10-21T21:48:37.109Z,99.90
2022-10-21T21:51:09.984Z,99.90
2022-10-21T21:53:40.362Z,99.90
2022-10-21T21:56:12.330Z,99.90
2022-10-21T21:58:41.751Z,99.90
2022-10-21T22:01:32.715Z,99.90
2022-10-21T22:04:05.925Z,99.90
2022-10-21T22:06:39.635Z,99.90
2022-10-21T22:09:11.912Z,99.90
2022-10-21T22:11:42.328Z,99.90
2022-10-21T22:14:10.811Z,99.90
2022-10-21T22:16:41.052Z,99.90
2022-10-21T22:19:09.533Z,99.90
2022-10-21T22:21:40.895Z,99.90
2022-10-21T22:24:11.787Z,99.90
2022-10-21T22:26:43.266Z,99.90
2022-10-21T22:29:13.075Z,99.90
2022-10-21T22:31:45.166Z,99.90
2022-10-21T22:34:13.846Z,99.90
2022-10-21T22:36:43.672Z,99.90
2022-10-21T22:39:12.106Z,99.90
2022-10-21T22:41:42.934Z,99.90
2022-10-21T22:44:14.170Z,99.90
2022-10-21T22:46:45.150Z,99.90
2022-10-21T22:49:13.388Z,99.90
2022-10-21T22:51:41.936Z,99.90
2022-10-21T22:54:29.629Z,94.00
2022-10-21T22:57:00.599Z,14.80
2022-10-21T22:59:30.328Z,99.90
2022-10-21T23:02:01.487Z,53.40
2022-10-21T23:04:31.372Z,1.00
2022-10-21T23:07:17.354Z,1.00
2022-10-21T23:09:50.502Z,99.90
2022-10-21T23:12:26.005Z,99.90
2022-10-21T23:14:54.375Z,99.90
2022-10-21T23:17:23.172Z,99.90
2022-10-21T23:19:59.928Z,99.90
2022-10-21T23:22:28.835Z,99.90
2022-10-21T23:24:58.542Z,99.90
2022-10-21T23:27:32.865Z,99.90
2022-10-21T23:30:01.282Z,99.90
2022-10-21T23:32:30.474Z,99.90
2022-10-21T23:35:00.481Z,99.90
2022-10-21T23:37:31.181Z,99.90
2022-10-21T23:40:12.331Z,99.90
2022-10-21T23:42:43.388Z,99.90
2022-10-21T23:45:14.527Z,99.90
2022-10-21T23:47:46.051Z,99.90
2022-10-21T23:50:17.794Z,99.90
2022-10-21T23:52:46.298Z,99.90
2022-10-21T23:55:18.953Z,99.90
